sensor_id;sensor_type;location;lat;lon;timestamp;temperature;humidity
22682;DHT22;11508;50.856;4.380;2023-02-12T00:00:11;10.50;99.90
22682;DHT22;11508;50.856;4.380;2023-02-12T00:02:45;10.30;99.90
22682;DHT22;11508;50.856;4.380;2023-02-12T00:05:13;10.20;99.90
22682;DHT22;11508;50.856;4.380;2023-02-12T00:07:42;9.90;99.90
22682;DHT22;11508;50.856;4.380;2023-02-12T00:10:12;9.90;99.90
22682;DHT22;11508;50.856;4.380;2023-02-12T00:12:38;9.90;99.90
22682;DHT22;11508;50.856;4.380;2023-02-12T00:15:05;9.80;99.90
22682;DHT22;11508;50.856;4.380;2023-02-12T00:17:34;9.60;99.90
22682;DHT22;11508;50.856;4.380;2023-02-12T00:20:07;9.60;99.90
22682;DHT22;11508;50.856;4.380;2023-02-12T00:22:45;9.70;99.90
22682;DHT22;11508;50.856;4.380;2023-02-12T00:25:34;9.80;99.90
22682;DHT22;11508;50.856;4.380;2023-02-12T00:28:27;10.00;99.90
22682;DHT22;11508;50.856;4.380;2023-02-12T00:31:17;9.80;99.90
22682;DHT22;11508;50.856;4.380;2023-02-12T00:33:54;9.50;99.90
22682;DHT22;11508;50.856;4.380;2023-02-12T00:36:25;9.10;99.90
22682;DHT22;11508;50.856;4.380;2023-02-12T00:39:06;8.90;99.90
22682;DHT22;11508;50.856;4.380;2023-02-12T00:41:51;9.00;99.90
22682;DHT22;11508;50.856;4.380;2023-02-12T00:44:38;9.30;99.90
22682;DHT22;11508;50.856;4.380;2023-02-12T00:47:04;9.90;99.90
22682;DHT22;11508;50.856;4.380;2023-02-12T00:49:32;9.90;99.90
22682;DHT22;11508;50.856;4.380;2023-02-12T00:52:07;10.10;99.90
22682;DHT22;11508;50.856;4.380;2023-02-12T00:54:48;9.90;99.90
22682;DHT22;11508;50.856;4.380;2023-02-12T00:57:16;10.00;99.90
22682;DHT22;11508;50.856;4.380;2023-02-12T00:59:45;9.90;99.90
22682;DHT22;11508;50.856;4.380;2023-02-12T01:02:18;9.40;99.90
22682;DHT22;11508;50.856;4.380;2023-02-12T01:07:34;9.50;99.90
22682;DHT22;11508;50.856;4.380;2023-02-12T01:10:08;9.60;99.90
22682;DHT22;11508;50.856;4.380;2023-02-12T01:12:35;9.50;99.90
22682;DHT22;11508;50.856;4.380;2023-02-12T01:15:28;9.10;99.90
22682;DHT22;11508;50.856;4.380;2023-02-12T01:18:22;9.20;99.90
22682;DHT22;11508;50.856;4.380;2023-02-12T01:21:12;9.60;99.90
22682;DHT22;11508;50.856;4.380;2023-02-12T01:23:45;9.80;99.90
22682;DHT22;11508;50.856;4.380;2023-02-12T01:26:36;9.90;99.90
22682;DHT22;11508;50.856;4.380;2023-02-12T01:29:22;10.10;99.90
22682;DHT22;11508;50.856;4.380;2023-02-12T01:31:51;10.10;99.90
22682;DHT22;11508;50.856;4.380;2023-02-12T01:34:27;10.00;99.90
22682;DHT22;11508;50.856;4.380;2023-02-12T01:36:52;9.90;99.90
22682;DHT22;11508;50.856;4.380;2023-02-12T01:39:26;10.20;99.90
22682;DHT22;11508;50.856;4.380;2023-02-12T01:41:59;10.10;99.90
22682;DHT22;11508;50.856;4.380;2023-02-12T01:44:32;9.70;99.90
22682;DHT22;11508;50.856;4.380;2023-02-12T01:47:11;9.70;99.90
22682;DHT22;11508;50.856;4.380;2023-02-12T01:49:59;9.60;99.90
22682;DHT22;11508;50.856;4.380;2023-02-12T01:52:35;9.30;99.90
22682;DHT22;11508;50.856;4.380;2023-02-12T01:55:10;9.10;99.90
22682;DHT22;11508;50.856;4.380;2023-02-12T01:57:42;9.20;99.90
22682;DHT22;11508;50.856;4.380;2023-02-12T02:00:19;9.40;99.90
22682;DHT22;11508;50.856;4.380;2023-02-12T02:02:57;9.60;99.90
22682;DHT22;11508;50.856;4.380;2023-02-12T02:05:55;9.70;99.90
22682;DHT22;11508;50.856;4.380;2023-02-12T02:08:39;9.90;99.90
22682;DHT22;11508;50.856;4.380;2023-02-12T02:11:07;10.10;99.90
22682;DHT22;11508;50.856;4.380;2023-02-12T02:14:13;9.70;99.90
22682;DHT22;11508;50.856;4.380;2023-02-12T02:32:30;9.90;99.90
22682;DHT22;11508;50.856;4.380;2023-02-12T02:40:58;9.90;99.90
22682;DHT22;11508;50.856;4.380;2023-02-12T02:43:45;9.80;99.90
22682;DHT22;11508;50.856;4.380;2023-02-12T02:46:50;9.80;99.90
22682;DHT22;11508;50.856;4.380;2023-02-12T02:49:24;9.60;99.90
22682;DHT22;11508;50.856;4.380;2023-02-12T02:52:04;9.80;99.90
22682;DHT22;11508;50.856;4.380;2023-02-12T02:54:56;9.90;99.90
22682;DHT22;11508;50.856;4.380;2023-02-12T02:57:51;10.00;99.90
22682;DHT22;11508;50.856;4.380;2023-02-12T03:00:45;10.00;99.90
22682;DHT22;11508;50.856;4.380;2023-02-12T03:06:46;10.10;99.90
22682;DHT22;11508;50.856;4.380;2023-02-12T03:09:19;9.90;99.90
22682;DHT22;11508;50.856;4.380;2023-02-12T03:11:51;9.70;99.90
22682;DHT22;11508;50.856;4.380;2023-02-12T03:20:22;9.50;99.90
22682;DHT22;11508;50.856;4.380;2023-02-12T03:22:59;9.40;99.90
22682;DHT22;11508;50.856;4.380;2023-02-12T03:26:03;9.40;99.90
22682;DHT22;11508;50.856;4.380;2023-02-12T03:28:31;9.50;99.90
22682;DHT22;11508;50.856;4.380;2023-02-12T03:37:42;9.60;99.90
22682;DHT22;11508;50.856;4.380;2023-02-12T03:43:37;9.20;99.90
22682;DHT22;11508;50.856;4.380;2023-02-12T03:49:23;9.60;99.90
22682;DHT22;11508;50.856;4.380;2023-02-12T03:52:04;9.50;99.90
22682;DHT22;11508;50.856;4.380;2023-02-12T03:54:47;9.60;99.90
22682;DHT22;11508;50.856;4.380;2023-02-12T03:57:33;9.70;99.90
22682;DHT22;11508;50.856;4.380;2023-02-12T04:00:09;9.70;99.90
22682;DHT22;11508;50.856;4.380;2023-02-12T04:03:01;9.80;99.90
22682;DHT22;11508;50.856;4.380;2023-02-12T04:05:56;9.60;99.90
22682;DHT22;11508;50.856;4.380;2023-02-12T04:08:25;9.50;99.90
22682;DHT22;11508;50.856;4.380;2023-02-12T04:20:40;9.60;99.90
22682;DHT22;11508;50.856;4.380;2023-02-12T04:32:15;9.60;99.90
22682;DHT22;11508;50.856;4.380;2023-02-12T04:40:48;9.70;99.90
22682;DHT22;11508;50.856;4.380;2023-02-12T04:43:29;9.70;99.90
22682;DHT22;11508;50.856;4.380;2023-02-12T04:46:20;9.70;99.90
22682;DHT22;11508;50.856;4.380;2023-02-12T04:49:04;9.70;99.90
22682;DHT22;11508;50.856;4.380;2023-02-12T04:51:39;9.60;99.90
22682;DHT22;11508;50.856;4.380;2023-02-12T04:54:39;9.20;99.90
22682;DHT22;11508;50.856;4.380;2023-02-12T04:57:11;8.90;99.90
22682;DHT22;11508;50.856;4.380;2023-02-12T04:59:46;8.80;99.90
22682;DHT22;11508;50.856;4.380;2023-02-12T05:02:20;8.70;99.90
22682;DHT22;11508;50.856;4.380;2023-02-12T05:05:05;8.70;99.90
22682;DHT22;11508;50.856;4.380;2023-02-12T05:07:45;8.70;99.90
22682;DHT22;11508;50.856;4.380;2023-02-12T05:10:12;8.70;99.90
22682;DHT22;11508;50.856;4.380;2023-02-12T05:12:52;8.60;99.90
22682;DHT22;11508;50.856;4.380;2023-02-12T05:15:20;8.60;99.90
22682;DHT22;11508;50.856;4.380;2023-02-12T05:17:54;8.60;99.90
22682;DHT22;11508;50.856;4.380;2023-02-12T05:20:25;8.70;99.90
22682;DHT22;11508;50.856;4.380;2023-02-12T05:23:06;8.70;99.90
22682;DHT22;11508;50.856;4.380;2023-02-12T05:25:58;8.70;99.90
22682;DHT22;11508;50.856;4.380;2023-02-12T05:28:28;8.70;99.90
22682;DHT22;11508;50.856;4.380;2023-02-12T05:31:02;8.60;99.90
22682;DHT22;11508;50.856;4.380;2023-02-12T05:33:40;8.50;99.90
22682;DHT22;11508;50.856;4.380;2023-02-12T05:36:13;8.60;99.90
22682;DHT22;11508;50.856;4.380;2023-02-12T05:38:41;8.60;99.90
22682;DHT22;11508;50.856;4.380;2023-02-12T05:41:36;8.80;99.90
22682;DHT22;11508;50.856;4.380;2023-02-12T05:44:25;8.70;99.90
22682;DHT22;11508;50.856;4.380;2023-02-12T05:46:54;8.70;99.90
22682;DHT22;11508;50.856;4.380;2023-02-12T05:49:33;8.80;99.90
22682;DHT22;11508;50.856;4.380;2023-02-12T05:52:00;8.80;99.90
22682;DHT22;11508;50.856;4.380;2023-02-12T05:54:26;8.60;99.90
22682;DHT22;11508;50.856;4.380;2023-02-12T05:56:54;8.60;99.90
22682;DHT22;11508;50.856;4.380;2023-02-12T05:59:22;8.60;99.90
22682;DHT22;11508;50.856;4.380;2023-02-12T06:01:51;8.50;99.90
22682;DHT22;11508;50.856;4.380;2023-02-12T06:04:27;8.50;99.90
22682;DHT22;11508;50.856;4.380;2023-02-12T06:06:59;8.80;99.90
22682;DHT22;11508;50.856;4.380;2023-02-12T06:09:24;9.10;99.90
22682;DHT22;11508;50.856;4.380;2023-02-12T06:12:09;9.30;99.90
22682;DHT22;11508;50.856;4.380;2023-02-12T06:14:42;9.50;99.90
22682;DHT22;11508;50.856;4.380;2023-02-12T06:17:21;9.50;99.90
22682;DHT22;11508;50.856;4.380;2023-02-12T06:19:49;9.60;99.90
22682;DHT22;11508;50.856;4.380;2023-02-12T06:22:23;9.60;99.90
22682;DHT22;11508;50.856;4.380;2023-02-12T06:25:00;9.60;99.90
22682;DHT22;11508;50.856;4.380;2023-02-12T06:27:26;9.70;99.90
22682;DHT22;11508;50.856;4.380;2023-02-12T06:29:58;9.90;99.90
22682;DHT22;11508;50.856;4.380;2023-02-12T06:32:30;10.00;99.90
22682;DHT22;11508;50.856;4.380;2023-02-12T06:35:15;9.80;99.90
22682;DHT22;11508;50.856;4.380;2023-02-12T06:40:38;9.80;99.90
22682;DHT22;11508;50.856;4.380;2023-02-12T06:43:21;9.80;99.90
22682;DHT22;11508;50.856;4.380;2023-02-12T06:45:47;9.40;99.90
22682;DHT22;11508;50.856;4.380;2023-02-12T06:48:14;9.00;99.90
22682;DHT22;11508;50.856;4.380;2023-02-12T06:50:49;9.10;99.90
22682;DHT22;11508;50.856;4.380;2023-02-12T06:56:02;9.50;99.90
22682;DHT22;11508;50.856;4.380;2023-02-12T06:58:34;9.70;99.90
22682;DHT22;11508;50.856;4.380;2023-02-12T07:01:36;9.70;99.90
22682;DHT22;11508;50.856;4.380;2023-02-12T07:04:03;9.70;99.90
22682;DHT22;11508;50.856;4.380;2023-02-12T07:06:30;9.60;99.90
22682;DHT22;11508;50.856;4.380;2023-02-12T07:09:10;9.60;99.90
22682;DHT22;11508;50.856;4.380;2023-02-12T07:11:37;9.60;99.90
22682;DHT22;11508;50.856;4.380;2023-02-12T07:14:19;9.70;99.90
22682;DHT22;11508;50.856;4.380;2023-02-12T07:17:04;9.90;99.90
22682;DHT22;11508;50.856;4.380;2023-02-12T07:19:57;10.00;99.90
22682;DHT22;11508;50.856;4.380;2023-02-12T07:22:43;9.80;99.90
22682;DHT22;11508;50.856;4.380;2023-02-12T07:25:14;9.80;99.90
22682;DHT22;11508;50.856;4.380;2023-02-12T07:28:04;9.80;99.90
22682;DHT22;11508;50.856;4.380;2023-02-12T07:30:44;9.70;99.90
22682;DHT22;11508;50.856;4.380;2023-02-12T07:33:35;9.60;99.90
22682;DHT22;11508;50.856;4.380;2023-02-12T07:36:08;9.70;99.90
22682;DHT22;11508;50.856;4.380;2023-02-12T07:38:44;9.60;99.90
22682;DHT22;11508;50.856;4.380;2023-02-12T07:43:43;9.00;99.90
22682;DHT22;11508;50.856;4.380;2023-02-12T07:46:53;8.90;99.90
22682;DHT22;11508;50.856;4.380;2023-02-12T07:49:27;8.90;99.90
22682;DHT22;11508;50.856;4.380;2023-02-12T07:51:59;9.50;99.90
22682;DHT22;11508;50.856;4.380;2023-02-12T07:54:24;10.00;99.90
22682;DHT22;11508;50.856;4.380;2023-02-12T07:56:50;10.40;99.90
22682;DHT22;11508;50.856;4.380;2023-02-12T07:59:17;10.30;99.90
22682;DHT22;11508;50.856;4.380;2023-02-12T08:01:52;10.20;99.90
22682;DHT22;11508;50.856;4.380;2023-02-12T08:04:20;10.00;99.90
22682;DHT22;11508;50.856;4.380;2023-02-12T08:06:48;9.70;99.90
22682;DHT22;11508;50.856;4.380;2023-02-12T08:09:20;9.70;99.90
22682;DHT22;11508;50.856;4.380;2023-02-12T08:11:46;9.60;99.90
22682;DHT22;11508;50.856;4.380;2023-02-12T08:14:14;9.60;99.90
22682;DHT22;11508;50.856;4.380;2023-02-12T08:16:47;9.60;99.90
22682;DHT22;11508;50.856;4.380;2023-02-12T08:19:14;9.70;99.90
22682;DHT22;11508;50.856;4.380;2023-02-12T08:21:53;9.90;99.90
22682;DHT22;11508;50.856;4.380;2023-02-12T08:25:00;10.00;99.90
22682;DHT22;11508;50.856;4.380;2023-02-12T08:27:34;10.10;99.90
22682;DHT22;11508;50.856;4.380;2023-02-12T08:30:02;9.70;99.90
22682;DHT22;11508;50.856;4.380;2023-02-12T08:32:52;9.50;99.90
22682;DHT22;11508;50.856;4.380;2023-02-12T08:35:20;9.70;99.90
22682;DHT22;11508;50.856;4.380;2023-02-12T08:37:48;10.00;99.90
22682;DHT22;11508;50.856;4.380;2023-02-12T08:40:38;10.10;99.90
22682;DHT22;11508;50.856;4.380;2023-02-12T08:43:39;9.50;99.90
22682;DHT22;11508;50.856;4.380;2023-02-12T08:46:28;9.40;99.90
22682;DHT22;11508;50.856;4.380;2023-02-12T08:49:14;9.30;99.90
22682;DHT22;11508;50.856;4.380;2023-02-12T08:51:57;9.30;99.90
22682;DHT22;11508;50.856;4.380;2023-02-12T08:54:25;9.70;99.90
22682;DHT22;11508;50.856;4.380;2023-02-12T08:57:01;10.40;99.90
22682;DHT22;11508;50.856;4.380;2023-02-12T08:59:29;10.80;99.90
22682;DHT22;11508;50.856;4.380;2023-02-12T09:01:55;10.70;99.90
22682;DHT22;11508;50.856;4.380;2023-02-12T09:04:24;10.10;99.90
22682;DHT22;11508;50.856;4.380;2023-02-12T09:06:52;9.90;99.90
22682;DHT22;11508;50.856;4.380;2023-02-12T09:09:20;10.10;99.90
22682;DHT22;11508;50.856;4.380;2023-02-12T09:11:55;10.20;99.90
22682;DHT22;11508;50.856;4.380;2023-02-12T09:14:26;10.20;99.90
22682;DHT22;11508;50.856;4.380;2023-02-12T09:16:59;9.70;99.90
22682;DHT22;11508;50.856;4.380;2023-02-12T09:19:31;9.70;99.90
22682;DHT22;11508;50.856;4.380;2023-02-12T09:22:01;9.90;99.90
22682;DHT22;11508;50.856;4.380;2023-02-12T09:24:29;9.70;99.90
22682;DHT22;11508;50.856;4.380;2023-02-12T09:27:17;9.70;99.90
22682;DHT22;11508;50.856;4.380;2023-02-12T09:29:43;10.00;99.90
22682;DHT22;11508;50.856;4.380;2023-02-12T09:32:09;10.20;99.90
22682;DHT22;11508;50.856;4.380;2023-02-12T09:34:36;10.60;99.90
22682;DHT22;11508;50.856;4.380;2023-02-12T09:37:08;10.80;99.90
22682;DHT22;11508;50.856;4.380;2023-02-12T09:39:35;10.80;99.90
22682;DHT22;11508;50.856;4.380;2023-02-12T09:45:26;11.10;99.90
22682;DHT22;11508;50.856;4.380;2023-02-12T09:48:04;10.90;99.90
22682;DHT22;11508;50.856;4.380;2023-02-12T09:50:54;11.10;99.90
22682;DHT22;11508;50.856;4.380;2023-02-12T09:53:29;11.30;99.90
22682;DHT22;11508;50.856;4.380;2023-02-12T09:55:56;11.30;99.90
22682;DHT22;11508;50.856;4.380;2023-02-12T09:58:40;11.50;99.90
22682;DHT22;11508;50.856;4.380;2023-02-12T10:01:19;11.70;99.90
22682;DHT22;11508;50.856;4.380;2023-02-12T10:03:50;11.40;99.90
22682;DHT22;11508;50.856;4.380;2023-02-12T10:06:23;11.00;99.90
22682;DHT22;11508;50.856;4.380;2023-02-12T10:14:56;10.30;99.90
22682;DHT22;11508;50.856;4.380;2023-02-12T10:29:29;9.80;99.90
22682;DHT22;11508;50.856;4.380;2023-02-12T10:32:44;9.80;99.90
22682;DHT22;11508;50.856;4.380;2023-02-12T10:35:13;9.80;99.90
22682;DHT22;11508;50.856;4.380;2023-02-12T10:37:59;9.70;99.90
22682;DHT22;11508;50.856;4.380;2023-02-12T10:40:33;9.70;99.90
22682;DHT22;11508;50.856;4.380;2023-02-12T10:43:23;9.70;99.90
22682;DHT22;11508;50.856;4.380;2023-02-12T10:45:49;9.70;99.90
22682;DHT22;11508;50.856;4.380;2023-02-12T10:48:37;9.80;99.90
22682;DHT22;11508;50.856;4.380;2023-02-12T10:53:39;9.70;99.90
22682;DHT22;11508;50.856;4.380;2023-02-12T10:58:57;9.90;99.90
22682;DHT22;11508;50.856;4.380;2023-02-12T11:01:30;10.20;99.90
22682;DHT22;11508;50.856;4.380;2023-02-12T11:03:58;10.20;99.90
22682;DHT22;11508;50.856;4.380;2023-02-12T11:06:27;10.50;99.90
22682;DHT22;11508;50.856;4.380;2023-02-12T11:08:54;10.50;99.90
22682;DHT22;11508;50.856;4.380;2023-02-12T11:11:27;11.00;99.90
22682;DHT22;11508;50.856;4.380;2023-02-12T11:14:08;10.90;99.90
22682;DHT22;11508;50.856;4.380;2023-02-12T11:16:56;10.80;99.90
22682;DHT22;11508;50.856;4.380;2023-02-12T11:19:40;10.90;99.90
22682;DHT22;11508;50.856;4.380;2023-02-12T11:22:09;10.90;99.90
22682;DHT22;11508;50.856;4.380;2023-02-12T11:24:36;11.20;99.90
22682;DHT22;11508;50.856;4.380;2023-02-12T11:29:42;11.10;99.90
22682;DHT22;11508;50.856;4.380;2023-02-12T11:32:15;11.10;99.90
22682;DHT22;11508;50.856;4.380;2023-02-12T11:34:41;11.20;99.90
22682;DHT22;11508;50.856;4.380;2023-02-12T11:37:17;11.40;99.90
22682;DHT22;11508;50.856;4.380;2023-02-12T11:39:48;11.20;99.90
22682;DHT22;11508;50.856;4.380;2023-02-12T11:42:21;11.10;99.90
22682;DHT22;11508;50.856;4.380;2023-02-12T11:44:55;11.10;99.90
22682;DHT22;11508;50.856;4.380;2023-02-12T11:50:16;10.90;99.90
22682;DHT22;11508;50.856;4.380;2023-02-12T11:52:43;11.10;99.90
22682;DHT22;11508;50.856;4.380;2023-02-12T11:55:31;11.40;99.90
22682;DHT22;11508;50.856;4.380;2023-02-12T12:01:13;11.70;99.90
22682;DHT22;11508;50.856;4.380;2023-02-12T12:06:28;11.70;99.90
22682;DHT22;11508;50.856;4.380;2023-02-12T12:09:34;11.40;99.90
22682;DHT22;11508;50.856;4.380;2023-02-12T12:17:28;11.40;99.90
22682;DHT22;11508;50.856;4.380;2023-02-12T12:20:16;11.30;99.90
22682;DHT22;11508;50.856;4.380;2023-02-12T12:25:39;11.70;99.90
22682;DHT22;11508;50.856;4.380;2023-02-12T12:31:02;11.50;99.90
22682;DHT22;11508;50.856;4.380;2023-02-12T12:36:39;11.40;99.90
22682;DHT22;11508;50.856;4.380;2023-02-12T12:39:28;11.10;99.90
22682;DHT22;11508;50.856;4.380;2023-02-12T12:45:16;10.60;99.90
22682;DHT22;11508;50.856;4.380;2023-02-12T13:11:08;10.70;99.90
22682;DHT22;11508;50.856;4.380;2023-02-12T13:13:42;10.90;99.90
22682;DHT22;11508;50.856;4.380;2023-02-12T13:22:36;10.80;99.90
22682;DHT22;11508;50.856;4.380;2023-02-12T13:25:20;10.90;99.90
22682;DHT22;11508;50.856;4.380;2023-02-12T13:27:49;11.00;99.90
22682;DHT22;11508;50.856;4.380;2023-02-12T13:30:51;11.00;99.90
22682;DHT22;11508;50.856;4.380;2023-02-12T13:36:05;11.50;99.90
22682;DHT22;11508;50.856;4.380;2023-02-12T13:38:38;11.60;99.90
22682;DHT22;11508;50.856;4.380;2023-02-12T13:41:08;11.30;99.90
22682;DHT22;11508;50.856;4.380;2023-02-12T13:44:05;11.30;99.90
22682;DHT22;11508;50.856;4.380;2023-02-12T13:49:51;11.20;99.90
22682;DHT22;11508;50.856;4.380;2023-02-12T13:55:03;10.90;99.90
22682;DHT22;11508;50.856;4.380;2023-02-12T13:57:34;11.10;99.90
22682;DHT22;11508;50.856;4.380;2023-02-12T14:00:02;11.00;99.90
22682;DHT22;11508;50.856;4.380;2023-02-12T14:05:24;11.10;99.90
22682;DHT22;11508;50.856;4.380;2023-02-12T14:07:54;11.30;99.90
22682;DHT22;11508;50.856;4.380;2023-02-12T14:10:30;11.20;99.90
22682;DHT22;11508;50.856;4.380;2023-02-12T14:13:16;11.40;99.90
22682;DHT22;11508;50.856;4.380;2023-02-12T14:15:52;11.50;99.90
22682;DHT22;11508;50.856;4.380;2023-02-12T14:23:42;11.40;99.90
22682;DHT22;11508;50.856;4.380;2023-02-12T14:26:14;11.40;99.90
22682;DHT22;11508;50.856;4.380;2023-02-12T14:28:50;11.10;99.90
22682;DHT22;11508;50.856;4.380;2023-02-12T14:33:47;11.20;99.90
22682;DHT22;11508;50.856;4.380;2023-02-12T14:41:42;10.90;99.90
22682;DHT22;11508;50.856;4.380;2023-02-12T14:50:16;11.30;99.90
22682;DHT22;11508;50.856;4.380;2023-02-12T14:52:57;11.30;99.90
22682;DHT22;11508;50.856;4.380;2023-02-12T14:55:39;11.20;99.90
22682;DHT22;11508;50.856;4.380;2023-02-12T14:58:33;11.20;99.90
22682;DHT22;11508;50.856;4.380;2023-02-12T15:01:06;10.90;99.90
22682;DHT22;11508;50.856;4.380;2023-02-12T15:03:50;10.90;99.90
22682;DHT22;11508;50.856;4.380;2023-02-12T15:06:33;11.00;99.90
22682;DHT22;11508;50.856;4.380;2023-02-12T15:09:32;10.90;99.90
22682;DHT22;11508;50.856;4.380;2023-02-12T15:12:11;10.50;99.90
22682;DHT22;11508;50.856;4.380;2023-02-12T15:17:50;10.90;99.90
22682;DHT22;11508;50.856;4.380;2023-02-12T15:20:37;11.00;99.90
22682;DHT22;11508;50.856;4.380;2023-02-12T15:26:48;11.10;99.90
22682;DHT22;11508;50.856;4.380;2023-02-12T15:32:27;10.80;99.90
22682;DHT22;11508;50.856;4.380;2023-02-12T15:35:02;10.80;99.90
22682;DHT22;11508;50.856;4.380;2023-02-12T15:37:45;10.80;99.90
22682;DHT22;11508;50.856;4.380;2023-02-12T15:40:17;10.80;99.90
22682;DHT22;11508;50.856;4.380;2023-02-12T15:45:33;10.60;99.90
22682;DHT22;11508;50.856;4.380;2023-02-12T15:54:19;10.00;99.90
22682;DHT22;11508;50.856;4.380;2023-02-12T15:56:46;9.80;99.90
22682;DHT22;11508;50.856;4.380;2023-02-12T15:59:28;9.80;99.90
22682;DHT22;11508;50.856;4.380;2023-02-12T16:02:02;9.70;99.90
22682;DHT22;11508;50.856;4.380;2023-02-12T16:04:44;10.00;99.90
22682;DHT22;11508;50.856;4.380;2023-02-12T16:07:18;10.10;99.90
22682;DHT22;11508;50.856;4.380;2023-02-12T16:10:09;10.30;99.90
22682;DHT22;11508;50.856;4.380;2023-02-12T16:12:46;10.40;99.90
22682;DHT22;11508;50.856;4.380;2023-02-12T16:15:40;10.50;99.90
22682;DHT22;11508;50.856;4.380;2023-02-12T16:18:06;10.40;99.90
22682;DHT22;11508;50.856;4.380;2023-02-12T16:21:21;10.30;99.90
22682;DHT22;11508;50.856;4.380;2023-02-12T16:23:51;10.40;99.90
22682;DHT22;11508;50.856;4.380;2023-02-12T16:26:25;10.60;99.90
22682;DHT22;11508;50.856;4.380;2023-02-12T16:28:53;10.70;99.90
22682;DHT22;11508;50.856;4.380;2023-02-12T16:31:37;10.50;99.90
22682;DHT22;11508;50.856;4.380;2023-02-12T16:34:04;10.20;99.90
22682;DHT22;11508;50.856;4.380;2023-02-12T16:36:44;10.30;99.90
22682;DHT22;11508;50.856;4.380;2023-02-12T16:42:30;10.20;99.90
22682;DHT22;11508;50.856;4.380;2023-02-12T16:45:00;10.30;99.90
22682;DHT22;11508;50.856;4.380;2023-02-12T16:47:34;10.20;99.90
22682;DHT22;11508;50.856;4.380;2023-02-12T16:50:13;10.10;99.90
22682;DHT22;11508;50.856;4.380;2023-02-12T16:52:48;10.30;99.90
22682;DHT22;11508;50.856;4.380;2023-02-12T16:55:34;10.40;99.90
22682;DHT22;11508;50.856;4.380;2023-02-12T16:58:01;10.20;99.90
22682;DHT22;11508;50.856;4.380;2023-02-12T17:00:27;10.50;99.90
22682;DHT22;11508;50.856;4.380;2023-02-12T17:03:13;10.40;99.90
22682;DHT22;11508;50.856;4.380;2023-02-12T17:06:00;10.60;99.90
22682;DHT22;11508;50.856;4.380;2023-02-12T17:08:27;10.30;99.90
22682;DHT22;11508;50.856;4.380;2023-02-12T17:11:00;10.00;99.90
22682;DHT22;11508;50.856;4.380;2023-02-12T17:13:42;9.80;99.90
22682;DHT22;11508;50.856;4.380;2023-02-12T17:16:15;9.70;99.90
22682;DHT22;11508;50.856;4.380;2023-02-12T17:18:58;9.50;99.90
22682;DHT22;11508;50.856;4.380;2023-02-12T17:21:33;9.50;99.90
22682;DHT22;11508;50.856;4.380;2023-02-12T17:24:21;9.70;99.90
22682;DHT22;11508;50.856;4.380;2023-02-12T17:26:49;10.00;99.90
22682;DHT22;11508;50.856;4.380;2023-02-12T17:29:23;10.10;99.90
22682;DHT22;11508;50.856;4.380;2023-02-12T17:31:59;10.20;99.90
22682;DHT22;11508;50.856;4.380;2023-02-12T17:34:27;10.20;99.90
22682;DHT22;11508;50.856;4.380;2023-02-12T17:37:12;10.20;99.90
22682;DHT22;11508;50.856;4.380;2023-02-12T17:39:40;10.30;99.90
22682;DHT22;11508;50.856;4.380;2023-02-12T17:42:16;10.50;99.90
22682;DHT22;11508;50.856;4.380;2023-02-12T17:45:12;10.40;99.90
22682;DHT22;11508;50.856;4.380;2023-02-12T17:47:39;10.50;99.90
22682;DHT22;11508;50.856;4.380;2023-02-12T17:50:29;10.40;99.90
22682;DHT22;11508;50.856;4.380;2023-02-12T17:53:16;10.30;99.90
22682;DHT22;11508;50.856;4.380;2023-02-12T17:55:43;10.40;99.90
22682;DHT22;11508;50.856;4.380;2023-02-12T17:58:33;10.20;99.90
22682;DHT22;11508;50.856;4.380;2023-02-12T18:01:08;10.20;99.90
22682;DHT22;11508;50.856;4.380;2023-02-12T18:03:36;10.10;99.90
22682;DHT22;11508;50.856;4.380;2023-02-12T18:06:29;10.40;99.90
22682;DHT22;11508;50.856;4.380;2023-02-12T18:09:03;10.60;99.90
22682;DHT22;11508;50.856;4.380;2023-02-12T18:11:30;10.60;99.90
22682;DHT22;11508;50.856;4.380;2023-02-12T18:14:04;10.60;99.90
22682;DHT22;11508;50.856;4.380;2023-02-12T18:17:01;10.40;99.90
22682;DHT22;11508;50.856;4.380;2023-02-12T18:19:28;10.10;99.90
22682;DHT22;11508;50.856;4.380;2023-02-12T18:21:55;10.00;99.90
22682;DHT22;11508;50.856;4.380;2023-02-12T18:24:41;9.90;99.90
22682;DHT22;11508;50.856;4.380;2023-02-12T18:27:15;10.00;99.90
22682;DHT22;11508;50.856;4.380;2023-02-12T18:29:44;10.00;99.90
22682;DHT22;11508;50.856;4.380;2023-02-12T18:32:15;10.00;99.90
22682;DHT22;11508;50.856;4.380;2023-02-12T18:34:47;10.10;99.90
22682;DHT22;11508;50.856;4.380;2023-02-12T18:37:35;10.20;99.90
22682;DHT22;11508;50.856;4.380;2023-02-12T18:40:06;10.20;99.90
22682;DHT22;11508;50.856;4.380;2023-02-12T18:42:34;10.10;99.90
22682;DHT22;11508;50.856;4.380;2023-02-12T18:45:13;10.00;99.90
22682;DHT22;11508;50.856;4.380;2023-02-12T18:47:46;10.00;99.90
22682;DHT22;11508;50.856;4.380;2023-02-12T18:50:14;10.00;99.90
22682;DHT22;11508;50.856;4.380;2023-02-12T18:52:43;10.20;99.90
22682;DHT22;11508;50.856;4.380;2023-02-12T18:55:09;10.10;99.90
22682;DHT22;11508;50.856;4.380;2023-02-12T18:57:38;10.20;99.90
22682;DHT22;11508;50.856;4.380;2023-02-12T19:00:10;10.30;99.90
22682;DHT22;11508;50.856;4.380;2023-02-12T19:02:36;10.20;99.90
22682;DHT22;11508;50.856;4.380;2023-02-12T19:05:09;10.00;99.90
22682;DHT22;11508;50.856;4.380;2023-02-12T19:07:48;10.00;99.90
22682;DHT22;11508;50.856;4.380;2023-02-12T19:10:21;10.20;99.90
22682;DHT22;11508;50.856;4.380;2023-02-12T19:12:54;10.50;99.90
22682;DHT22;11508;50.856;4.380;2023-02-12T19:15:32;10.60;99.90
22682;DHT22;11508;50.856;4.380;2023-02-12T19:18:15;10.20;99.90
22682;DHT22;11508;50.856;4.380;2023-02-12T19:20:43;10.20;99.90
22682;DHT22;11508;50.856;4.380;2023-02-12T19:23:12;10.20;99.90
22682;DHT22;11508;50.856;4.380;2023-02-12T19:25:41;10.20;99.90
22682;DHT22;11508;50.856;4.380;2023-02-12T19:28:22;10.10;99.90
22682;DHT22;11508;50.856;4.380;2023-02-12T19:30:48;10.50;99.90
22682;DHT22;11508;50.856;4.380;2023-02-12T19:33:15;10.40;99.90
22682;DHT22;11508;50.856;4.380;2023-02-12T19:35:48;10.40;99.90
22682;DHT22;11508;50.856;4.380;2023-02-12T19:38:26;10.30;99.90
22682;DHT22;11508;50.856;4.380;2023-02-12T19:41:03;10.20;99.90
22682;DHT22;11508;50.856;4.380;2023-02-12T19:43:36;10.10;99.90
22682;DHT22;11508;50.856;4.380;2023-02-12T19:46:33;10.10;99.90
22682;DHT22;11508;50.856;4.380;2023-02-12T19:49:02;10.10;99.90
22682;DHT22;11508;50.856;4.380;2023-02-12T19:51:36;10.10;99.90
22682;DHT22;11508;50.856;4.380;2023-02-12T19:54:07;10.30;99.90
22682;DHT22;11508;50.856;4.380;2023-02-12T19:56:46;10.30;99.90
22682;DHT22;11508;50.856;4.380;2023-02-12T19:59:25;10.40;99.90
22682;DHT22;11508;50.856;4.380;2023-02-12T20:02:01;10.10;99.90
22682;DHT22;11508;50.856;4.380;2023-02-12T20:04:30;9.80;99.90
22682;DHT22;11508;50.856;4.380;2023-02-12T20:06:59;9.80;99.90
22682;DHT22;11508;50.856;4.380;2023-02-12T20:09:41;10.10;99.90
22682;DHT22;11508;50.856;4.380;2023-02-12T20:12:12;10.20;99.90